EKSL weather

Slaglille Svæveflyvecenter
Capital Region, Denmark

Public forecast

Using degrees Celsius for public forecast. Weather courtesy of forecast.io.

METAR (pilot weather report)

Closest report is Copenhagen Roskilde Airport, 18.4 nm (34.0 km) ENE. Retrieved 2019/07/21 03:20 UTC (29 minutes ago):

EKRK 210320Z AUTO 17002KT 5000 FEW120/// 15/14 Q1011

TAF (pilot weather forecast)

Forecast is more than 12 hours old.

Closest forecast is Copenhagen Kastrup Airport, 35.8 nm (66.2 km) ENE. Retrieved 2019/07/20 00:31 UTC (1 day ago):

TAF EKCH 202327Z 2100/2124 20012KT CAVOK TEMPO 2100/2104 4000 SHRA BKN008 BKN030CB TEMPO 2104/2107 4000 BR BKN008